sensor_id;sensor_type;location;lat;lon;timestamp;pressure;altitude;pressure_sealevel;temperature;humidity
35291;BME280;21411;50.024;19.220;2024-01-25T00:00:58;98765.12;;;6.13;100.00
35291;BME280;21411;50.024;19.220;2024-01-25T00:03:41;98765.27;;;6.17;100.00
35291;BME280;21411;50.024;19.220;2024-01-25T00:06:07;98766.23;;;6.19;100.00
35291;BME280;21411;50.024;19.220;2024-01-25T00:08:35;98779.17;;;6.21;100.00
35291;BME280;21411;50.024;19.220;2024-01-25T00:11:02;98786.46;;;6.24;100.00
35291;BME280;21411;50.024;19.220;2024-01-25T00:13:29;98791.11;;;6.26;100.00
35291;BME280;21411;50.024;19.220;2024-01-25T00:15:56;98797.38;;;6.27;100.00
35291;BME280;21411;50.024;19.220;2024-01-25T00:18:22;98790.71;;;6.30;100.00
35291;BME280;21411;50.024;19.220;2024-01-25T00:20:49;98798.13;;;6.33;100.00
35291;BME280;21411;50.024;19.220;2024-01-25T00:23:16;98795.83;;;6.36;100.00
35291;BME280;21411;50.024;19.220;2024-01-25T00:25:42;98801.61;;;6.41;100.00
35291;BME280;21411;50.024;19.220;2024-01-25T00:28:09;98802.84;;;6.47;100.00
35291;BME280;21411;50.024;19.220;2024-01-25T00:30:35;98798.84;;;6.50;100.00
35291;BME280;21411;50.024;19.220;2024-01-25T00:33:02;98806.89;;;6.51;100.00
35291;BME280;21411;50.024;19.220;2024-01-25T00:35:29;98813.50;;;6.53;100.00
35291;BME280;21411;50.024;19.220;2024-01-25T00:37:56;98813.81;;;6.53;100.00
35291;BME280;21411;50.024;19.220;2024-01-25T00:40:23;98810.54;;;6.55;100.00
35291;BME280;21411;50.024;19.220;2024-01-25T00:42:50;98810.81;;;6.57;100.00
35291;BME280;21411;50.024;19.220;2024-01-25T00:45:20;98809.77;;;6.56;100.00
35291;BME280;21411;50.024;19.220;2024-01-25T00:47:48;98808.09;;;6.55;100.00
35291;BME280;21411;50.024;19.220;2024-01-25T00:50:15;98799.16;;;6.54;100.00
35291;BME280;21411;50.024;19.220;2024-01-25T00:52:44;98799.05;;;6.52;100.00
35291;BME280;21411;50.024;19.220;2024-01-25T00:55:11;98793.16;;;6.50;100.00
35291;BME280;21411;50.024;19.220;2024-01-25T00:57:38;98796.87;;;6.50;100.00
35291;BME280;21411;50.024;19.220;2024-01-25T01:00:05;98807.11;;;6.53;100.00
35291;BME280;21411;50.024;19.220;2024-01-25T01:02:40;98808.89;;;6.53;100.00
35291;BME280;21411;50.024;19.220;2024-01-25T01:05:09;98805.27;;;6.52;100.00
35291;BME280;21411;50.024;19.220;2024-01-25T01:07:36;98815.85;;;6.49;100.00
35291;BME280;21411;50.024;19.220;2024-01-25T01:10:03;98831.39;;;6.48;100.00
35291;BME280;21411;50.024;19.220;2024-01-25T01:12:30;98846.13;;;6.50;100.00
35291;BME280;21411;50.024;19.220;2024-01-25T01:14:57;98845.30;;;6.49;100.00
35291;BME280;21411;50.024;19.220;2024-01-25T01:17:23;98852.85;;;6.43;100.00
35291;BME280;21411;50.024;19.220;2024-01-25T01:19:50;98862.16;;;6.37;100.00
35291;BME280;21411;50.024;19.220;2024-01-25T01:22:16;98847.88;;;6.30;100.00
35291;BME280;21411;50.024;19.220;2024-01-25T01:24:43;98838.80;;;6.22;100.00
35291;BME280;21411;50.024;19.220;2024-01-25T01:27:10;98832.91;;;6.16;100.00
35291;BME280;21411;50.024;19.220;2024-01-25T01:29:36;98837.48;;;6.13;100.00
35291;BME280;21411;50.024;19.220;2024-01-25T01:32:03;98839.55;;;6.10;100.00
35291;BME280;21411;50.024;19.220;2024-01-25T01:34:30;98834.48;;;6.09;100.00
35291;BME280;21411;50.024;19.220;2024-01-25T01:36:56;98826.42;;;6.08;100.00
35291;BME280;21411;50.024;19.220;2024-01-25T01:39:23;98823.98;;;6.08;100.00
35291;BME280;21411;50.024;19.220;2024-01-25T01:41:49;98825.16;;;6.08;100.00
35291;BME280;21411;50.024;19.220;2024-01-25T01:44:16;98819.99;;;6.06;100.00
35291;BME280;21411;50.024;19.220;2024-01-25T01:46:43;98819.46;;;6.06;100.00
35291;BME280;21411;50.024;19.220;2024-01-25T01:49:11;98820.43;;;6.08;100.00
35291;BME280;21411;50.024;19.220;2024-01-25T01:51:39;98815.70;;;6.11;100.00
35291;BME280;21411;50.024;19.220;2024-01-25T01:54:07;98819.49;;;6.12;100.00
35291;BME280;21411;50.024;19.220;2024-01-25T01:56:34;98822.27;;;6.13;100.00
35291;BME280;21411;50.024;19.220;2024-01-25T01:59:04;98823.48;;;6.14;100.00
35291;BME280;21411;50.024;19.220;2024-01-25T02:01:32;98816.88;;;6.15;100.00
35291;BME280;21411;50.024;19.220;2024-01-25T02:03:58;98818.94;;;6.17;100.00
35291;BME280;21411;50.024;19.220;2024-01-25T02:06:25;98817.05;;;6.19;100.00
35291;BME280;21411;50.024;19.220;2024-01-25T02:08:52;98816.67;;;6.20;100.00
35291;BME280;21411;50.024;19.220;2024-01-25T02:11:20;98815.27;;;6.20;100.00
35291;BME280;21411;50.024;19.220;2024-01-25T02:13:46;98812.04;;;6.21;100.00
35291;BME280;21411;50.024;19.220;2024-01-25T02:16:13;98813.17;;;6.22;100.00
35291;BME280;21411;50.024;19.220;2024-01-25T02:18:44;98811.74;;;6.23;100.00
35291;BME280;21411;50.024;19.220;2024-01-25T02:21:10;98798.19;;;6.22;100.00
35291;BME280;21411;50.024;19.220;2024-01-25T02:23:37;98800.25;;;6.23;100.00
35291;BME280;21411;50.024;19.220;2024-01-25T02:26:03;98799.10;;;6.28;100.00
35291;BME280;21411;50.024;19.220;2024-01-25T02:28:30;98807.58;;;6.35;100.00
35291;BME280;21411;50.024;19.220;2024-01-25T02:30:57;98800.98;;;6.39;100.00
35291;BME280;21411;50.024;19.220;2024-01-25T02:33:23;98800.55;;;6.41;100.00
35291;BME280;21411;50.024;19.220;2024-01-25T02:35:50;98790.33;;;6.44;100.00
35291;BME280;21411;50.024;19.220;2024-01-25T02:38:16;98796.80;;;6.48;100.00
35291;BME280;21411;50.024;19.220;2024-01-25T02:40:43;98807.77;;;6.54;100.00
35291;BME280;21411;50.024;19.220;2024-01-25T02:43:09;98805.20;;;6.59;100.00
35291;BME280;21411;50.024;19.220;2024-01-25T02:45:36;98806.08;;;6.59;100.00
35291;BME280;21411;50.024;19.220;2024-01-25T02:48:03;98802.68;;;6.61;100.00
35291;BME280;21411;50.024;19.220;2024-01-25T02:50:30;98802.77;;;6.62;100.00
35291;BME280;21411;50.024;19.220;2024-01-25T02:52:57;98805.61;;;6.65;100.00
35291;BME280;21411;50.024;19.220;2024-01-25T02:55:23;98802.33;;;6.67;100.00
35291;BME280;21411;50.024;19.220;2024-01-25T02:57:50;98795.67;;;6.66;100.00
35291;BME280;21411;50.024;19.220;2024-01-25T03:00:31;98801.23;;;6.65;100.00
35291;BME280;21411;50.024;19.220;2024-01-25T03:02:58;98803.45;;;6.66;100.00
35291;BME280;21411;50.024;19.220;2024-01-25T03:05:25;98803.64;;;6.66;100.00
35291;BME280;21411;50.024;19.220;2024-01-25T03:07:51;98808.20;;;6.66;100.00
35291;BME280;21411;50.024;19.220;2024-01-25T03:10:18;98805.15;;;6.67;100.00
35291;BME280;21411;50.024;19.220;2024-01-25T03:12:44;98808.25;;;6.68;100.00
35291;BME280;21411;50.024;19.220;2024-01-25T03:15:11;98808.39;;;6.69;100.00
35291;BME280;21411;50.024;19.220;2024-01-25T03:17:38;98810.42;;;6.68;100.00
35291;BME280;21411;50.024;19.220;2024-01-25T03:20:05;98816.05;;;6.68;100.00
35291;BME280;21411;50.024;19.220;2024-01-25T03:22:32;98814.33;;;6.71;100.00
35291;BME280;21411;50.024;19.220;2024-01-25T03:24:59;98816.98;;;6.74;100.00
35291;BME280;21411;50.024;19.220;2024-01-25T03:27:25;98810.17;;;6.76;100.00
35291;BME280;21411;50.024;19.220;2024-01-25T03:29:52;98812.83;;;6.78;100.00
35291;BME280;21411;50.024;19.220;2024-01-25T03:32:18;98813.41;;;6.80;100.00
35291;BME280;21411;50.024;19.220;2024-01-25T03:34:45;98813.95;;;6.80;100.00
35291;BME280;21411;50.024;19.220;2024-01-25T03:37:12;98821.02;;;6.80;100.00
35291;BME280;21411;50.024;19.220;2024-01-25T03:39:38;98824.84;;;6.82;100.00
35291;BME280;21411;50.024;19.220;2024-01-25T03:42:05;98829.08;;;6.81;100.00
35291;BME280;21411;50.024;19.220;2024-01-25T03:44:31;98828.28;;;6.80;100.00
35291;BME280;21411;50.024;19.220;2024-01-25T03:46:58;98830.98;;;6.79;100.00
35291;BME280;21411;50.024;19.220;2024-01-25T03:49:25;98830.20;;;6.77;100.00
35291;BME280;21411;50.024;19.220;2024-01-25T03:51:51;98831.67;;;6.76;100.00
35291;BME280;21411;50.024;19.220;2024-01-25T03:54:18;98828.00;;;6.75;100.00
35291;BME280;21411;50.024;19.220;2024-01-25T03:56:44;98822.87;;;6.75;100.00
35291;BME280;21411;50.024;19.220;2024-01-25T03:59:11;98827.65;;;6.75;100.00
35291;BME280;21411;50.024;19.220;2024-01-25T04:01:46;98818.83;;;6.75;100.00
35291;BME280;21411;50.024;19.220;2024-01-25T04:04:16;98821.43;;;6.76;100.00
35291;BME280;21411;50.024;19.220;2024-01-25T04:06:43;98819.14;;;6.76;100.00
35291;BME280;21411;50.024;19.220;2024-01-25T04:09:10;98818.60;;;6.76;100.00
35291;BME280;21411;50.024;19.220;2024-01-25T04:11:37;98827.54;;;6.74;100.00
35291;BME280;21411;50.024;19.220;2024-01-25T04:14:04;98835.07;;;6.72;100.00
35291;BME280;21411;50.024;19.220;2024-01-25T04:16:32;98831.95;;;6.71;100.00
35291;BME280;21411;50.024;19.220;2024-01-25T04:18:59;98830.33;;;6.68;100.00
35291;BME280;21411;50.024;19.220;2024-01-25T04:21:27;98829.89;;;6.67;100.00
35291;BME280;21411;50.024;19.220;2024-01-25T04:23:53;98836.27;;;6.67;100.00
35291;BME280;21411;50.024;19.220;2024-01-25T04:26:20;98831.67;;;6.66;100.00
35291;BME280;21411;50.024;19.220;2024-01-25T04:28:47;98831.44;;;6.64;100.00
35291;BME280;21411;50.024;19.220;2024-01-25T04:31:13;98831.39;;;6.61;100.00
35291;BME280;21411;50.024;19.220;2024-01-25T04:33:40;98831.20;;;6.58;100.00
35291;BME280;21411;50.024;19.220;2024-01-25T04:36:07;98834.85;;;6.56;100.00
35291;BME280;21411;50.024;19.220;2024-01-25T04:38:33;98829.55;;;6.53;100.00
35291;BME280;21411;50.024;19.220;2024-01-25T04:41:00;98844.34;;;6.51;100.00
35291;BME280;21411;50.024;19.220;2024-01-25T04:43:27;98847.42;;;6.49;100.00
35291;BME280;21411;50.024;19.220;2024-01-25T04:45:53;98832.89;;;6.43;100.00
35291;BME280;21411;50.024;19.220;2024-01-25T04:48:20;98834.61;;;6.38;100.00
35291;BME280;21411;50.024;19.220;2024-01-25T04:50:47;98835.25;;;6.32;100.00
35291;BME280;21411;50.024;19.220;2024-01-25T04:53:13;98833.68;;;6.28;100.00
35291;BME280;21411;50.024;19.220;2024-01-25T04:55:40;98833.39;;;6.27;100.00
35291;BME280;21411;50.024;19.220;2024-01-25T04:58:06;98836.27;;;6.25;100.00
35291;BME280;21411;50.024;19.220;2024-01-25T05:00:33;98834.52;;;6.25;100.00
35291;BME280;21411;50.024;19.220;2024-01-25T05:03:00;98830.77;;;6.27;100.00
35291;BME280;21411;50.024;19.220;2024-01-25T05:05:27;98831.50;;;6.29;100.00
35291;BME280;21411;50.024;19.220;2024-01-25T05:07:54;98833.72;;;6.31;100.00
35291;BME280;21411;50.024;19.220;2024-01-25T05:10:20;98830.86;;;6.32;100.00
35291;BME280;21411;50.024;19.220;2024-01-25T05:12:48;98824.98;;;6.33;100.00
35291;BME280;21411;50.024;19.220;2024-01-25T05:15:15;98821.40;;;6.33;100.00
35291;BME280;21411;50.024;19.220;2024-01-25T05:17:41;98818.41;;;6.33;100.00
35291;BME280;21411;50.024;19.220;2024-01-25T05:20:08;98823.03;;;6.33;100.00
35291;BME280;21411;50.024;19.220;2024-01-25T05:22:35;98816.65;;;6.33;100.00
35291;BME280;21411;50.024;19.220;2024-01-25T05:25:07;98818.39;;;6.34;100.00
35291;BME280;21411;50.024;19.220;2024-01-25T05:27:34;98822.08;;;6.34;100.00
35291;BME280;21411;50.024;19.220;2024-01-25T05:30:01;98818.05;;;6.33;100.00
35291;BME280;21411;50.024;19.220;2024-01-25T05:32:28;98813.58;;;6.32;100.00
35291;BME280;21411;50.024;19.220;2024-01-25T05:34:55;98814.73;;;6.29;100.00
35291;BME280;21411;50.024;19.220;2024-01-25T05:37:21;98808.65;;;6.28;100.00
35291;BME280;21411;50.024;19.220;2024-01-25T05:39:48;98807.64;;;6.27;100.00
35291;BME280;21411;50.024;19.220;2024-01-25T05:42:14;98803.22;;;6.27;100.00
35291;BME280;21411;50.024;19.220;2024-01-25T05:44:41;98806.23;;;6.27;100.00
35291;BME280;21411;50.024;19.220;2024-01-25T05:47:08;98803.51;;;6.28;100.00
35291;BME280;21411;50.024;19.220;2024-01-25T05:49:34;98815.83;;;6.29;100.00
35291;BME280;21411;50.024;19.220;2024-01-25T05:52:02;98815.19;;;6.31;100.00
35291;BME280;21411;50.024;19.220;2024-01-25T05:54:29;98806.11;;;6.32;100.00
35291;BME280;21411;50.024;19.220;2024-01-25T05:56:55;98804.86;;;6.33;100.00
35291;BME280;21411;50.024;19.220;2024-01-25T05:59:22;98800.52;;;6.31;100.00
35291;BME280;21411;50.024;19.220;2024-01-25T06:01:48;98791.98;;;6.29;100.00
35291;BME280;21411;50.024;19.220;2024-01-25T06:04:15;98800.46;;;6.29;100.00
35291;BME280;21411;50.024;19.220;2024-01-25T06:06:41;98795.71;;;6.29;100.00
35291;BME280;21411;50.024;19.220;2024-01-25T06:09:08;98792.09;;;6.27;100.00
35291;BME280;21411;50.024;19.220;2024-01-25T06:11:35;98793.59;;;6.26;100.00
35291;BME280;21411;50.024;19.220;2024-01-25T06:14:02;98786.55;;;6.25;100.00
35291;BME280;21411;50.024;19.220;2024-01-25T06:16:28;98778.53;;;6.23;100.00
35291;BME280;21411;50.024;19.220;2024-01-25T06:18:55;98777.57;;;6.22;100.00
35291;BME280;21411;50.024;19.220;2024-01-25T06:21:22;98783.10;;;6.21;100.00
35291;BME280;21411;50.024;19.220;2024-01-25T06:23:49;98778.74;;;6.20;100.00
35291;BME280;21411;50.024;19.220;2024-01-25T06:26:15;98778.07;;;6.19;100.00
35291;BME280;21411;50.024;19.220;2024-01-25T06:28:42;98776.14;;;6.19;100.00
35291;BME280;21411;50.024;19.220;2024-01-25T06:31:08;98771.74;;;6.18;100.00
35291;BME280;21411;50.024;19.220;2024-01-25T06:33:35;98768.45;;;6.18;100.00
35291;BME280;21411;50.024;19.220;2024-01-25T06:36:01;98773.95;;;6.17;100.00
35291;BME280;21411;50.024;19.220;2024-01-25T06:38:28;98775.58;;;6.16;100.00
35291;BME280;21411;50.024;19.220;2024-01-25T06:40:55;98774.51;;;6.16;100.00
35291;BME280;21411;50.024;19.220;2024-01-25T06:43:21;98780.54;;;6.15;100.00
35291;BME280;21411;50.024;19.220;2024-01-25T06:45:48;98783.02;;;6.15;100.00
35291;BME280;21411;50.024;19.220;2024-01-25T06:48:15;98784.22;;;6.15;100.00
35291;BME280;21411;50.024;19.220;2024-01-25T06:50:41;98795.33;;;6.15;100.00
35291;BME280;21411;50.024;19.220;2024-01-25T06:53:08;98804.50;;;6.19;100.00
35291;BME280;21411;50.024;19.220;2024-01-25T06:55:35;98806.25;;;6.23;100.00
35291;BME280;21411;50.024;19.220;2024-01-25T06:58:01;98808.20;;;6.26;100.00
35291;BME280;21411;50.024;19.220;2024-01-25T07:00:28;98816.61;;;6.28;100.00
35291;BME280;21411;50.024;19.220;2024-01-25T07:02:54;98818.80;;;6.29;100.00
35291;BME280;21411;50.024;19.220;2024-01-25T07:05:21;98816.27;;;6.30;100.00
35291;BME280;21411;50.024;19.220;2024-01-25T07:07:48;98823.46;;;6.31;100.00
35291;BME280;21411;50.024;19.220;2024-01-25T07:10:14;98819.38;;;6.32;100.00
35291;BME280;21411;50.024;19.220;2024-01-25T07:12:41;98827.42;;;6.30;100.00
35291;BME280;21411;50.024;19.220;2024-01-25T07:15:07;98824.70;;;6.28;100.00
35291;BME280;21411;50.024;19.220;2024-01-25T07:17:34;98827.80;;;6.26;100.00
35291;BME280;21411;50.024;19.220;2024-01-25T07:20:01;98826.92;;;6.26;100.00
35291;BME280;21411;50.024;19.220;2024-01-25T07:22:27;98833.38;;;6.27;100.00
35291;BME280;21411;50.024;19.220;2024-01-25T07:24:54;98827.44;;;6.29;100.00
35291;BME280;21411;50.024;19.220;2024-01-25T07:27:20;98826.33;;;6.34;100.00
35291;BME280;21411;50.024;19.220;2024-01-25T07:29:47;98829.20;;;6.36;100.00
35291;BME280;21411;50.024;19.220;2024-01-25T07:32:14;98831.58;;;6.38;100.00
35291;BME280;21411;50.024;19.220;2024-01-25T07:34:40;98836.84;;;6.42;100.00
35291;BME280;21411;50.024;19.220;2024-01-25T07:37:07;98841.36;;;6.43;100.00
35291;BME280;21411;50.024;19.220;2024-01-25T07:39:34;98852.46;;;6.44;100.00
35291;BME280;21411;50.024;19.220;2024-01-25T07:42:00;98845.05;;;6.44;100.00
35291;BME280;21411;50.024;19.220;2024-01-25T07:44:27;98847.88;;;6.44;100.00
35291;BME280;21411;50.024;19.220;2024-01-25T07:46:54;98851.42;;;6.40;100.00
35291;BME280;21411;50.024;19.220;2024-01-25T07:49:20;98854.92;;;6.37;100.00
35291;BME280;21411;50.024;19.220;2024-01-25T07:51:47;98858.73;;;6.35;100.00
35291;BME280;21411;50.024;19.220;2024-01-25T07:54:14;98853.40;;;6.32;100.00
35291;BME280;21411;50.024;19.220;2024-01-25T07:56:40;98858.38;;;6.28;100.00
35291;BME280;21411;50.024;19.220;2024-01-25T07:59:07;98858.52;;;6.25;100.00
35291;BME280;21411;50.024;19.220;2024-01-25T08:01:34;98860.48;;;6.25;100.00
35291;BME280;21411;50.024;19.220;2024-01-25T08:04:00;98856.95;;;6.25;100.00
35291;BME280;21411;50.024;19.220;2024-01-25T08:06:27;98861.52;;;6.26;100.00
35291;BME280;21411;50.024;19.220;2024-01-25T08:08:53;98861.66;;;6.26;100.00
35291;BME280;21411;50.024;19.220;2024-01-25T08:11:20;98859.22;;;6.25;100.00
35291;BME280;21411;50.024;19.220;2024-01-25T08:13:47;98851.96;;;6.26;100.00
35291;BME280;21411;50.024;19.220;2024-01-25T08:16:14;98851.20;;;6.27;100.00
35291;BME280;21411;50.024;19.220;2024-01-25T08:18:48;98848.15;;;6.25;100.00
35291;BME280;21411;50.024;19.220;2024-01-25T08:21:15;98849.27;;;6.24;100.00
35291;BME280;21411;50.024;19.220;2024-01-25T08:23:42;98856.48;;;6.24;100.00
35291;BME280;21411;50.024;19.220;2024-01-25T08:26:09;98850.29;;;6.28;100.00
35291;BME280;21411;50.024;19.220;2024-01-25T08:28:36;98852.67;;;6.33;100.00
35291;BME280;21411;50.024;19.220;2024-01-25T08:31:02;98859.48;;;6.37;100.00
35291;BME280;21411;50.024;19.220;2024-01-25T08:33:29;98862.25;;;6.39;100.00
35291;BME280;21411;50.024;19.220;2024-01-25T08:35:56;98863.33;;;6.38;100.00
35291;BME280;21411;50.024;19.220;2024-01-25T08:38:22;98869.52;;;6.38;100.00
35291;BME280;21411;50.024;19.220;2024-01-25T08:40:49;98866.42;;;6.40;100.00
35291;BME280;21411;50.024;19.220;2024-01-25T08:43:16;98868.34;;;6.41;100.00
35291;BME280;21411;50.024;19.220;2024-01-25T08:45:42;98869.61;;;6.40;100.00
35291;BME280;21411;50.024;19.220;2024-01-25T08:48:09;98859.63;;;6.38;100.00
35291;BME280;21411;50.024;19.220;2024-01-25T08:50:36;98861.73;;;6.38;100.00
35291;BME280;21411;50.024;19.220;2024-01-25T08:53:02;98868.59;;;6.39;100.00
35291;BME280;21411;50.024;19.220;2024-01-25T08:55:29;98871.25;;;6.38;100.00
35291;BME280;21411;50.024;19.220;2024-01-25T08:57:55;98869.15;;;6.38;100.00
35291;BME280;21411;50.024;19.220;2024-01-25T09:00:22;98867.51;;;6.40;100.00
35291;BME280;21411;50.024;19.220;2024-01-25T09:02:49;98869.66;;;6.42;100.00
35291;BME280;21411;50.024;19.220;2024-01-25T09:05:16;98876.80;;;6.44;100.00
35291;BME280;21411;50.024;19.220;2024-01-25T09:07:42;98882.52;;;6.46;100.00
35291;BME280;21411;50.024;19.220;2024-01-25T09:10:09;98886.13;;;6.48;100.00
35291;BME280;21411;50.024;19.220;2024-01-25T09:12:37;98886.20;;;6.50;100.00
35291;BME280;21411;50.024;19.220;2024-01-25T09:15:04;98882.19;;;6.52;100.00
35291;BME280;21411;50.024;19.220;2024-01-25T09:17:31;98889.63;;;6.55;100.00
35291;BME280;21411;50.024;19.220;2024-01-25T09:19:58;98897.00;;;6.59;100.00
35291;BME280;21411;50.024;19.220;2024-01-25T09:22:26;98899.67;;;6.62;100.00
35291;BME280;21411;50.024;19.220;2024-01-25T09:24:53;98900.06;;;6.65;100.00
35291;BME280;21411;50.024;19.220;2024-01-25T09:27:19;98905.84;;;6.69;100.00
35291;BME280;21411;50.024;19.220;2024-01-25T09:29:46;98902.53;;;6.75;100.00
35291;BME280;21411;50.024;19.220;2024-01-25T09:32:12;98894.79;;;6.81;100.00
35291;BME280;21411;50.024;19.220;2024-01-25T09:34:39;98893.13;;;6.86;100.00
35291;BME280;21411;50.024;19.220;2024-01-25T09:37:06;98896.41;;;6.87;100.00
35291;BME280;21411;50.024;19.220;2024-01-25T09:39:33;98895.34;;;6.87;100.00
35291;BME280;21411;50.024;19.220;2024-01-25T09:41:59;98909.34;;;6.87;100.00
35291;BME280;21411;50.024;19.220;2024-01-25T09:44:29;98911.45;;;6.87;100.00
35291;BME280;21411;50.024;19.220;2024-01-25T09:46:57;98911.44;;;6.87;100.00
35291;BME280;21411;50.024;19.220;2024-01-25T09:49:24;98915.33;;;6.87;100.00
35291;BME280;21411;50.024;19.220;2024-01-25T09:51:51;98914.15;;;6.89;100.00
35291;BME280;21411;50.024;19.220;2024-01-25T09:54:18;98915.61;;;6.88;100.00
35291;BME280;21411;50.024;19.220;2024-01-25T09:56:45;98918.74;;;6.86;100.00
35291;BME280;21411;50.024;19.220;2024-01-25T09:59:12;98914.77;;;6.81;100.00
35291;BME280;21411;50.024;19.220;2024-01-25T10:01:39;98912.52;;;6.77;100.00
35291;BME280;21411;50.024;19.220;2024-01-25T10:04:08;98915.61;;;6.75;100.00
35291;BME280;21411;50.024;19.220;2024-01-25T10:06:35;98921.84;;;6.73;100.00
35291;BME280;21411;50.024;19.220;2024-01-25T10:09:04;98921.63;;;6.71;100.00
35291;BME280;21411;50.024;19.220;2024-01-25T10:11:30;98920.30;;;6.66;100.00
35291;BME280;21411;50.024;19.220;2024-01-25T10:14:02;98914.98;;;6.60;100.00
35291;BME280;21411;50.024;19.220;2024-01-25T10:16:29;98908.77;;;6.54;100.00
35291;BME280;21411;50.024;19.220;2024-01-25T10:18:56;98915.30;;;6.51;100.00
35291;BME280;21411;50.024;19.220;2024-01-25T10:21:22;98918.36;;;6.49;100.00
35291;BME280;21411;50.024;19.220;2024-01-25T10:23:49;98916.83;;;6.51;100.00
35291;BME280;21411;50.024;19.220;2024-01-25T10:26:17;98922.70;;;6.57;100.00
35291;BME280;21411;50.024;19.220;2024-01-25T10:28:51;98921.94;;;6.65;100.00
35291;BME280;21411;50.024;19.220;2024-01-25T10:31:17;98928.60;;;6.73;100.00
35291;BME280;21411;50.024;19.220;2024-01-25T10:33:44;98934.23;;;6.77;100.00
35291;BME280;21411;50.024;19.220;2024-01-25T10:36:11;98933.23;;;6.79;100.00
35291;BME280;21411;50.024;19.220;2024-01-25T10:38:38;98932.32;;;6.83;100.00
35291;BME280;21411;50.024;19.220;2024-01-25T10:41:05;98929.29;;;6.90;100.00
35291;BME280;21411;50.024;19.220;2024-01-25T10:43:32;98929.70;;;6.96;100.00
35291;BME280;21411;50.024;19.220;2024-01-25T10:45:59;98935.70;;;6.95;100.00
35291;BME280;21411;50.024;19.220;2024-01-25T10:48:27;98940.45;;;6.92;100.00
35291;BME280;21411;50.024;19.220;2024-01-25T10:50:55;98951.58;;;6.90;100.00
35291;BME280;21411;50.024;19.220;2024-01-25T10:53:24;98949.61;;;6.90;100.00
35291;BME280;21411;50.024;19.220;2024-01-25T10:55:51;98948.46;;;6.92;100.00
35291;BME280;21411;50.024;19.220;2024-01-25T10:58:18;98946.68;;;6.91;100.00
35291;BME280;21411;50.024;19.220;2024-01-25T11:01:11;98948.70;;;6.90;100.00
35291;BME280;21411;50.024;19.220;2024-01-25T11:03:39;98944.52;;;6.89;100.00
35291;BME280;21411;50.024;19.220;2024-01-25T11:06:08;98951.50;;;6.88;100.00
35291;BME280;21411;50.024;19.220;2024-01-25T11:08:38;98954.45;;;6.85;100.00
35291;BME280;21411;50.024;19.220;2024-01-25T11:11:06;98950.52;;;6.83;100.00
35291;BME280;21411;50.024;19.220;2024-01-25T11:13:35;98952.34;;;6.82;100.00
35291;BME280;21411;50.024;19.220;2024-01-25T11:16:18;98960.89;;;6.80;100.00
35291;BME280;21411;50.024;19.220;2024-01-25T11:18:51;98960.92;;;6.79;100.00
35291;BME280;21411;50.024;19.220;2024-01-25T11:21:25;98962.64;;;6.80;100.00
35291;BME280;21411;50.024;19.220;2024-01-25T11:23:59;98969.84;;;6.81;100.00
35291;BME280;21411;50.024;19.220;2024-01-25T11:26:27;98970.41;;;6.80;100.00
35291;BME280;21411;50.024;19.220;2024-01-25T11:28:53;98970.98;;;6.79;100.00
35291;BME280;21411;50.024;19.220;2024-01-25T11:31:22;98971.14;;;6.80;100.00
35291;BME280;21411;50.024;19.220;2024-01-25T11:33:50;98980.45;;;6.81;100.00
35291;BME280;21411;50.024;19.220;2024-01-25T11:36:20;98981.71;;;6.84;100.00
35291;BME280;21411;50.024;19.220;2024-01-25T11:38:47;98979.63;;;6.87;100.00
35291;BME280;21411;50.024;19.220;2024-01-25T11:41:13;98978.05;;;6.90;100.00
35291;BME280;21411;50.024;19.220;2024-01-25T11:43:40;98973.82;;;6.93;100.00
35291;BME280;21411;50.024;19.220;2024-01-25T11:46:08;98980.46;;;6.97;100.00
35291;BME280;21411;50.024;19.220;2024-01-25T11:48:38;98983.88;;;7.00;100.00
35291;BME280;21411;50.024;19.220;2024-01-25T11:51:05;98983.18;;;6.99;100.00
35291;BME280;21411;50.024;19.220;2024-01-25T11:53:31;98990.11;;;6.99;100.00
35291;BME280;21411;50.024;19.220;2024-01-25T11:55:58;98987.91;;;6.97;100.00
35291;BME280;21411;50.024;19.220;2024-01-25T11:58:25;98984.70;;;6.94;100.00
35291;BME280;21411;50.024;19.220;2024-01-25T12:00:52;98991.18;;;6.92;100.00
35291;BME280;21411;50.024;19.220;2024-01-25T12:03:19;98995.13;;;6.91;100.00
35291;BME280;21411;50.024;19.220;2024-01-25T12:05:46;98996.39;;;6.90;100.00
35291;BME280;21411;50.024;19.220;2024-01-25T12:08:13;99001.61;;;6.88;100.00
35291;BME280;21411;50.024;19.220;2024-01-25T12:10:40;98997.05;;;6.88;100.00
35291;BME280;21411;50.024;19.220;2024-01-25T12:13:07;99001.83;;;6.87;100.00
35291;BME280;21411;50.024;19.220;2024-01-25T12:15:35;99003.86;;;6.86;100.00
35291;BME280;21411;50.024;19.220;2024-01-25T12:18:01;99003.29;;;6.83;100.00
35291;BME280;21411;50.024;19.220;2024-01-25T12:20:28;99007.75;;;6.82;100.00
35291;BME280;21411;50.024;19.220;2024-01-25T12:22:58;99013.77;;;6.81;100.00
35291;BME280;21411;50.024;19.220;2024-01-25T12:25:24;99017.69;;;6.81;100.00
35291;BME280;21411;50.024;19.220;2024-01-25T12:27:53;99027.14;;;6.79;100.00
35291;BME280;21411;50.024;19.220;2024-01-25T12:30:20;99022.71;;;6.80;100.00
35291;BME280;21411;50.024;19.220;2024-01-25T12:32:48;99027.00;;;6.79;100.00
35291;BME280;21411;50.024;19.220;2024-01-25T12:35:16;99031.23;;;6.75;100.00
35291;BME280;21411;50.024;19.220;2024-01-25T12:37:43;99036.93;;;6.74;100.00
35291;BME280;21411;50.024;19.220;2024-01-25T12:40:10;99029.00;;;6.74;100.00
35291;BME280;21411;50.024;19.220;2024-01-25T12:42:37;99023.46;;;6.72;100.00
35291;BME280;21411;50.024;19.220;2024-01-25T12:45:04;99029.48;;;6.71;100.00
35291;BME280;21411;50.024;19.220;2024-01-25T12:47:31;99029.41;;;6.72;100.00
35291;BME280;21411;50.024;19.220;2024-01-25T12:49:58;99027.82;;;6.73;100.00